sensor_id;sensor_type;location;lat;lon;timestamp;temperature;humidity
52275;DHT22;38228;50.940;4.024;2024-02-23T00:02:18;6.20;99.90
52275;DHT22;38228;50.940;4.024;2024-02-23T00:04:43;6.30;99.90
52275;DHT22;38228;50.940;4.024;2024-02-23T00:07:10;6.10;99.90
52275;DHT22;38228;50.940;4.024;2024-02-23T00:09:36;6.00;99.90
52275;DHT22;38228;50.940;4.024;2024-02-23T00:12:02;5.90;99.90
52275;DHT22;38228;50.940;4.024;2024-02-23T00:14:27;5.90;99.90
52275;DHT22;38228;50.940;4.024;2024-02-23T00:16:53;5.90;99.90
52275;DHT22;38228;50.940;4.024;2024-02-23T00:19:19;5.90;99.90
52275;DHT22;38228;50.940;4.024;2024-02-23T00:21:45;5.90;99.90
52275;DHT22;38228;50.940;4.024;2024-02-23T00:24:15;5.80;99.90
52275;DHT22;38228;50.940;4.024;2024-02-23T00:26:42;5.70;99.90
52275;DHT22;38228;50.940;4.024;2024-02-23T00:29:07;5.80;99.90
52275;DHT22;38228;50.940;4.024;2024-02-23T00:31:37;5.80;99.90
52275;DHT22;38228;50.940;4.024;2024-02-23T00:34:03;5.80;99.90
52275;DHT22;38228;50.940;4.024;2024-02-23T00:36:28;5.80;99.90
52275;DHT22;38228;50.940;4.024;2024-02-23T00:38:54;5.70;99.90
52275;DHT22;38228;50.940;4.024;2024-02-23T00:41:20;5.80;99.90
52275;DHT22;38228;50.940;4.024;2024-02-23T00:43:45;5.70;99.90
52275;DHT22;38228;50.940;4.024;2024-02-23T00:46:13;5.60;99.90
52275;DHT22;38228;50.940;4.024;2024-02-23T00:48:40;5.70;99.90
52275;DHT22;38228;50.940;4.024;2024-02-23T00:51:05;5.70;99.90
52275;DHT22;38228;50.940;4.024;2024-02-23T00:53:32;5.60;99.90
52275;DHT22;38228;50.940;4.024;2024-02-23T00:55:58;5.60;99.90
52275;DHT22;38228;50.940;4.024;2024-02-23T00:58:24;5.60;99.90
52275;DHT22;38228;50.940;4.024;2024-02-23T01:00:49;5.70;99.90
52275;DHT22;38228;50.940;4.024;2024-02-23T01:03:15;5.70;99.90
52275;DHT22;38228;50.940;4.024;2024-02-23T01:05:41;5.80;99.90
52275;DHT22;38228;50.940;4.024;2024-02-23T01:08:08;5.70;99.90
52275;DHT22;38228;50.940;4.024;2024-02-23T01:10:34;5.70;99.90
52275;DHT22;38228;50.940;4.024;2024-02-23T01:13:00;5.60;99.90
52275;DHT22;38228;50.940;4.024;2024-02-23T01:15:25;5.60;99.90
52275;DHT22;38228;50.940;4.024;2024-02-23T01:17:51;5.60;99.90
52275;DHT22;38228;50.940;4.024;2024-02-23T01:20:17;5.60;99.90
52275;DHT22;38228;50.940;4.024;2024-02-23T01:22:43;5.70;99.90
52275;DHT22;38228;50.940;4.024;2024-02-23T01:25:08;5.50;99.90
52275;DHT22;38228;50.940;4.024;2024-02-23T01:27:34;5.50;99.90
52275;DHT22;38228;50.940;4.024;2024-02-23T01:30:00;5.50;99.90
52275;DHT22;38228;50.940;4.024;2024-02-23T01:32:26;5.60;99.90
52275;DHT22;38228;50.940;4.024;2024-02-23T01:34:52;5.40;99.90
52275;DHT22;38228;50.940;4.024;2024-02-23T01:37:17;5.50;99.90
52275;DHT22;38228;50.940;4.024;2024-02-23T01:39:43;5.60;99.90
52275;DHT22;38228;50.940;4.024;2024-02-23T01:42:09;5.60;99.90
52275;DHT22;38228;50.940;4.024;2024-02-23T01:44:35;5.60;99.90
52275;DHT22;38228;50.940;4.024;2024-02-23T01:47:01;5.60;99.90
52275;DHT22;38228;50.940;4.024;2024-02-23T01:49:29;5.60;99.90
52275;DHT22;38228;50.940;4.024;2024-02-23T01:52:03;5.70;99.90
52275;DHT22;38228;50.940;4.024;2024-02-23T01:54:29;5.60;99.90
52275;DHT22;38228;50.940;4.024;2024-02-23T01:56:57;5.70;99.90
52275;DHT22;38228;50.940;4.024;2024-02-23T01:59:24;5.60;99.90
52275;DHT22;38228;50.940;4.024;2024-02-23T02:01:51;5.60;99.90
52275;DHT22;38228;50.940;4.024;2024-02-23T02:04:16;5.60;99.90
52275;DHT22;38228;50.940;4.024;2024-02-23T02:06:42;5.70;99.90
52275;DHT22;38228;50.940;4.024;2024-02-23T02:09:08;5.70;99.90
52275;DHT22;38228;50.940;4.024;2024-02-23T02:11:34;5.70;99.90
52275;DHT22;38228;50.940;4.024;2024-02-23T02:13:59;5.70;99.90
52275;DHT22;38228;50.940;4.024;2024-02-23T02:16:25;5.70;99.90
52275;DHT22;38228;50.940;4.024;2024-02-23T02:18:51;5.70;99.90
52275;DHT22;38228;50.940;4.024;2024-02-23T02:21:17;5.70;99.90
52275;DHT22;38228;50.940;4.024;2024-02-23T02:23:42;5.70;99.90
52275;DHT22;38228;50.940;4.024;2024-02-23T02:26:08;5.70;99.90
52275;DHT22;38228;50.940;4.024;2024-02-23T02:28:33;5.60;99.90
52275;DHT22;38228;50.940;4.024;2024-02-23T02:31:00;5.70;99.90
52275;DHT22;38228;50.940;4.024;2024-02-23T02:33:25;5.60;99.90
52275;DHT22;38228;50.940;4.024;2024-02-23T02:35:51;5.70;99.90
52275;DHT22;38228;50.940;4.024;2024-02-23T02:38:17;5.70;99.90
52275;DHT22;38228;50.940;4.024;2024-02-23T02:40:42;5.70;99.90
52275;DHT22;38228;50.940;4.024;2024-02-23T02:43:08;5.70;99.90
52275;DHT22;38228;50.940;4.024;2024-02-23T02:45:34;5.70;99.90
52275;DHT22;38228;50.940;4.024;2024-02-23T02:48:03;5.60;99.90
52275;DHT22;38228;50.940;4.024;2024-02-23T02:50:29;5.60;99.90
52275;DHT22;38228;50.940;4.024;2024-02-23T02:52:54;5.50;99.90
52275;DHT22;38228;50.940;4.024;2024-02-23T02:55:20;5.60;99.90
52275;DHT22;38228;50.940;4.024;2024-02-23T02:57:46;5.60;99.90
52275;DHT22;38228;50.940;4.024;2024-02-23T03:00:12;5.60;99.90
52275;DHT22;38228;50.940;4.024;2024-02-23T03:02:37;5.60;99.90
52275;DHT22;38228;50.940;4.024;2024-02-23T03:05:03;5.70;99.90
52275;DHT22;38228;50.940;4.024;2024-02-23T03:07:29;5.80;99.90
52275;DHT22;38228;50.940;4.024;2024-02-23T03:09:55;5.80;99.90
52275;DHT22;38228;50.940;4.024;2024-02-23T03:12:21;5.80;99.90
52275;DHT22;38228;50.940;4.024;2024-02-23T03:14:46;5.90;99.90
52275;DHT22;38228;50.940;4.024;2024-02-23T03:17:12;5.80;99.90
52275;DHT22;38228;50.940;4.024;2024-02-23T03:19:38;5.90;99.90
52275;DHT22;38228;50.940;4.024;2024-02-23T03:22:04;5.90;99.90
52275;DHT22;38228;50.940;4.024;2024-02-23T03:24:30;5.90;99.90
52275;DHT22;38228;50.940;4.024;2024-02-23T03:26:56;6.00;99.90
52275;DHT22;38228;50.940;4.024;2024-02-23T03:29:22;6.00;99.90
52275;DHT22;38228;50.940;4.024;2024-02-23T03:31:57;6.10;99.90
52275;DHT22;38228;50.940;4.024;2024-02-23T03:34:23;6.10;99.90
52275;DHT22;38228;50.940;4.024;2024-02-23T03:36:49;6.10;99.90
52275;DHT22;38228;50.940;4.024;2024-02-23T03:39:15;6.10;99.90
52275;DHT22;38228;50.940;4.024;2024-02-23T03:41:40;6.10;99.90
52275;DHT22;38228;50.940;4.024;2024-02-23T03:44:06;6.10;99.90
52275;DHT22;38228;50.940;4.024;2024-02-23T03:46:32;6.20;99.90
52275;DHT22;38228;50.940;4.024;2024-02-23T03:48:57;6.10;99.90
52275;DHT22;38228;50.940;4.024;2024-02-23T03:51:23;6.10;99.90
52275;DHT22;38228;50.940;4.024;2024-02-23T03:53:49;6.00;99.90
52275;DHT22;38228;50.940;4.024;2024-02-23T03:56:15;5.90;99.90
52275;DHT22;38228;50.940;4.024;2024-02-23T03:58:41;5.90;99.90
52275;DHT22;38228;50.940;4.024;2024-02-23T04:01:07;6.00;99.90
52275;DHT22;38228;50.940;4.024;2024-02-23T04:03:33;5.90;99.90
52275;DHT22;38228;50.940;4.024;2024-02-23T04:05:58;6.00;99.90
52275;DHT22;38228;50.940;4.024;2024-02-23T04:08:27;5.90;99.90
52275;DHT22;38228;50.940;4.024;2024-02-23T04:10:53;6.00;99.90
52275;DHT22;38228;50.940;4.024;2024-02-23T04:13:19;6.00;99.90
52275;DHT22;38228;50.940;4.024;2024-02-23T04:15:45;5.90;99.90
52275;DHT22;38228;50.940;4.024;2024-02-23T04:18:11;5.90;99.90
52275;DHT22;38228;50.940;4.024;2024-02-23T04:20:36;5.90;99.90
52275;DHT22;38228;50.940;4.024;2024-02-23T04:23:02;5.80;99.90
52275;DHT22;38228;50.940;4.024;2024-02-23T04:25:27;6.00;99.90
52275;DHT22;38228;50.940;4.024;2024-02-23T04:27:53;6.00;99.90
52275;DHT22;38228;50.940;4.024;2024-02-23T04:30:19;5.90;99.90
52275;DHT22;38228;50.940;4.024;2024-02-23T04:32:45;5.80;99.90
52275;DHT22;38228;50.940;4.024;2024-02-23T04:35:10;5.70;99.90
52275;DHT22;38228;50.940;4.024;2024-02-23T04:37:36;5.70;99.90
52275;DHT22;38228;50.940;4.024;2024-02-23T04:40:02;5.80;99.90
52275;DHT22;38228;50.940;4.024;2024-02-23T04:42:29;5.90;99.90
52275;DHT22;38228;50.940;4.024;2024-02-23T04:44:55;5.90;99.90
52275;DHT22;38228;50.940;4.024;2024-02-23T04:47:21;5.90;99.90
52275;DHT22;38228;50.940;4.024;2024-02-23T04:49:47;5.90;99.90
52275;DHT22;38228;50.940;4.024;2024-02-23T04:52:12;5.90;99.90
52275;DHT22;38228;50.940;4.024;2024-02-23T04:54:38;5.90;99.90
52275;DHT22;38228;50.940;4.024;2024-02-23T04:57:04;6.00;99.90
52275;DHT22;38228;50.940;4.024;2024-02-23T04:59:29;6.00;99.90
52275;DHT22;38228;50.940;4.024;2024-02-23T05:01:57;6.00;99.90
52275;DHT22;38228;50.940;4.024;2024-02-23T05:04:23;6.10;99.90
52275;DHT22;38228;50.940;4.024;2024-02-23T05:06:49;6.10;99.90
52275;DHT22;38228;50.940;4.024;2024-02-23T05:09:14;6.10;99.90
52275;DHT22;38228;50.940;4.024;2024-02-23T05:11:40;6.10;99.90
52275;DHT22;38228;50.940;4.024;2024-02-23T05:14:06;5.90;99.90
52275;DHT22;38228;50.940;4.024;2024-02-23T05:16:31;5.80;99.90
52275;DHT22;38228;50.940;4.024;2024-02-23T05:18:57;5.80;99.90
52275;DHT22;38228;50.940;4.024;2024-02-23T05:21:23;5.80;99.90
52275;DHT22;38228;50.940;4.024;2024-02-23T05:23:49;5.80;99.90
52275;DHT22;38228;50.940;4.024;2024-02-23T05:26:15;5.80;99.90
52275;DHT22;38228;50.940;4.024;2024-02-23T05:28:41;5.80;99.90
52275;DHT22;38228;50.940;4.024;2024-02-23T05:31:07;5.70;99.90
52275;DHT22;38228;50.940;4.024;2024-02-23T05:33:34;5.60;99.90
52275;DHT22;38228;50.940;4.024;2024-02-23T05:36:00;5.70;99.90
52275;DHT22;38228;50.940;4.024;2024-02-23T05:38:26;5.80;99.90
52275;DHT22;38228;50.940;4.024;2024-02-23T05:40:51;5.80;99.90
52275;DHT22;38228;50.940;4.024;2024-02-23T05:43:17;5.90;99.90
52275;DHT22;38228;50.940;4.024;2024-02-23T05:45:43;5.80;99.90
52275;DHT22;38228;50.940;4.024;2024-02-23T05:48:09;5.80;99.90
52275;DHT22;38228;50.940;4.024;2024-02-23T05:50:35;5.80;99.90
52275;DHT22;38228;50.940;4.024;2024-02-23T05:53:00;5.70;99.90
52275;DHT22;38228;50.940;4.024;2024-02-23T05:55:26;5.80;99.90
52275;DHT22;38228;50.940;4.024;2024-02-23T05:57:52;5.90;99.90
52275;DHT22;38228;50.940;4.024;2024-02-23T06:00:18;5.80;99.90
52275;DHT22;38228;50.940;4.024;2024-02-23T06:02:47;5.90;99.90
52275;DHT22;38228;50.940;4.024;2024-02-23T06:05:13;5.90;99.90
52275;DHT22;38228;50.940;4.024;2024-02-23T06:07:39;6.00;99.90
52275;DHT22;38228;50.940;4.024;2024-02-23T06:10:06;6.10;99.90
52275;DHT22;38228;50.940;4.024;2024-02-23T06:12:31;6.10;99.90
52275;DHT22;38228;50.940;4.024;2024-02-23T06:14:57;6.10;99.90
52275;DHT22;38228;50.940;4.024;2024-02-23T06:17:24;6.10;99.90
52275;DHT22;38228;50.940;4.024;2024-02-23T06:19:50;6.10;99.90
52275;DHT22;38228;50.940;4.024;2024-02-23T06:22:16;6.10;99.90
52275;DHT22;38228;50.940;4.024;2024-02-23T06:24:47;6.20;99.90
52275;DHT22;38228;50.940;4.024;2024-02-23T06:27:13;6.20;99.90
52275;DHT22;38228;50.940;4.024;2024-02-23T06:29:38;6.10;99.90
52275;DHT22;38228;50.940;4.024;2024-02-23T06:32:05;6.30;99.90
52275;DHT22;38228;50.940;4.024;2024-02-23T06:34:31;6.30;99.90
52275;DHT22;38228;50.940;4.024;2024-02-23T06:36:57;6.30;99.90
52275;DHT22;38228;50.940;4.024;2024-02-23T06:39:23;6.20;99.90
52275;DHT22;38228;50.940;4.024;2024-02-23T06:41:48;6.20;99.90
52275;DHT22;38228;50.940;4.024;2024-02-23T06:44:14;6.20;99.90
52275;DHT22;38228;50.940;4.024;2024-02-23T06:46:40;6.30;99.90
52275;DHT22;38228;50.940;4.024;2024-02-23T06:49:07;6.30;99.90
52275;DHT22;38228;50.940;4.024;2024-02-23T06:51:33;6.30;99.90
52275;DHT22;38228;50.940;4.024;2024-02-23T06:53:58;6.40;99.90
52275;DHT22;38228;50.940;4.024;2024-02-23T06:56:24;6.40;99.90
52275;DHT22;38228;50.940;4.024;2024-02-23T06:58:50;6.50;99.90
52275;DHT22;38228;50.940;4.024;2024-02-23T07:01:15;6.50;99.90
52275;DHT22;38228;50.940;4.024;2024-02-23T07:03:41;6.40;99.90
52275;DHT22;38228;50.940;4.024;2024-02-23T07:06:08;6.40;99.90
52275;DHT22;38228;50.940;4.024;2024-02-23T07:08:37;6.30;99.90
52275;DHT22;38228;50.940;4.024;2024-02-23T07:11:03;6.40;99.90
52275;DHT22;38228;50.940;4.024;2024-02-23T07:13:29;6.40;99.90
52275;DHT22;38228;50.940;4.024;2024-02-23T07:15:55;6.40;99.90
52275;DHT22;38228;50.940;4.024;2024-02-23T07:18:22;6.40;99.90
52275;DHT22;38228;50.940;4.024;2024-02-23T07:20:47;6.40;99.90
52275;DHT22;38228;50.940;4.024;2024-02-23T07:23:13;6.50;99.90
52275;DHT22;38228;50.940;4.024;2024-02-23T07:25:41;6.60;99.90
52275;DHT22;38228;50.940;4.024;2024-02-23T07:28:07;6.70;99.90
52275;DHT22;38228;50.940;4.024;2024-02-23T07:30:33;6.80;99.90
52275;DHT22;38228;50.940;4.024;2024-02-23T07:33:00;6.90;99.90
52275;DHT22;38228;50.940;4.024;2024-02-23T07:35:26;6.90;99.90
52275;DHT22;38228;50.940;4.024;2024-02-23T07:37:52;7.00;99.90
52275;DHT22;38228;50.940;4.024;2024-02-23T07:40:17;7.10;99.90
52275;DHT22;38228;50.940;4.024;2024-02-23T07:42:43;7.30;99.90
52275;DHT22;38228;50.940;4.024;2024-02-23T07:45:09;7.10;99.90
52275;DHT22;38228;50.940;4.024;2024-02-23T07:47:36;7.00;99.90
52275;DHT22;38228;50.940;4.024;2024-02-23T07:50:02;6.80;99.90
52275;DHT22;38228;50.940;4.024;2024-02-23T07:52:28;6.70;99.90
52275;DHT22;38228;50.940;4.024;2024-02-23T07:54:54;6.70;99.90
52275;DHT22;38228;50.940;4.024;2024-02-23T07:57:20;6.60;99.90
52275;DHT22;38228;50.940;4.024;2024-02-23T07:59:46;6.60;99.90
52275;DHT22;38228;50.940;4.024;2024-02-23T08:02:12;6.60;99.90
52275;DHT22;38228;50.940;4.024;2024-02-23T08:04:38;6.80;99.90
52275;DHT22;38228;50.940;4.024;2024-02-23T08:07:04;6.80;99.90
52275;DHT22;38228;50.940;4.024;2024-02-23T08:09:29;6.70;99.90
52275;DHT22;38228;50.940;4.024;2024-02-23T08:11:55;6.70;99.90
52275;DHT22;38228;50.940;4.024;2024-02-23T08:14:21;6.70;99.90
52275;DHT22;38228;50.940;4.024;2024-02-23T08:16:47;6.70;99.90
52275;DHT22;38228;50.940;4.024;2024-02-23T08:19:15;6.70;99.90
52275;DHT22;38228;50.940;4.024;2024-02-23T08:21:41;6.80;99.90
52275;DHT22;38228;50.940;4.024;2024-02-23T08:24:07;6.70;99.90
52275;DHT22;38228;50.940;4.024;2024-02-23T08:26:35;6.70;99.90
52275;DHT22;38228;50.940;4.024;2024-02-23T08:29:03;6.80;99.90
52275;DHT22;38228;50.940;4.024;2024-02-23T08:31:30;6.60;99.90
52275;DHT22;38228;50.940;4.024;2024-02-23T08:33:56;6.70;99.90
52275;DHT22;38228;50.940;4.024;2024-02-23T08:36:21;6.70;99.90
52275;DHT22;38228;50.940;4.024;2024-02-23T08:38:47;6.70;99.90
52275;DHT22;38228;50.940;4.024;2024-02-23T08:41:13;6.80;99.90
52275;DHT22;38228;50.940;4.024;2024-02-23T08:43:38;6.80;99.90
52275;DHT22;38228;50.940;4.024;2024-02-23T08:46:04;6.80;99.90
52275;DHT22;38228;50.940;4.024;2024-02-23T08:48:30;6.90;99.90
52275;DHT22;38228;50.940;4.024;2024-02-23T08:50:56;6.90;99.90
52275;DHT22;38228;50.940;4.024;2024-02-23T08:53:21;6.90;99.90
52275;DHT22;38228;50.940;4.024;2024-02-23T08:55:47;6.80;99.90
52275;DHT22;38228;50.940;4.024;2024-02-23T08:58:13;6.80;99.90
52275;DHT22;38228;50.940;4.024;2024-02-23T09:00:38;6.80;99.90
52275;DHT22;38228;50.940;4.024;2024-02-23T09:03:04;7.00;99.90
52275;DHT22;38228;50.940;4.024;2024-02-23T09:05:30;7.00;99.90
52275;DHT22;38228;50.940;4.024;2024-02-23T09:07:56;7.10;99.90
52275;DHT22;38228;50.940;4.024;2024-02-23T09:10:21;7.10;99.90
52275;DHT22;38228;50.940;4.024;2024-02-23T09:12:50;7.20;99.90
52275;DHT22;38228;50.940;4.024;2024-02-23T09:15:16;7.20;99.90
52275;DHT22;38228;50.940;4.024;2024-02-23T09:17:41;7.30;99.90
52275;DHT22;38228;50.940;4.024;2024-02-23T09:20:07;7.20;99.90
52275;DHT22;38228;50.940;4.024;2024-02-23T09:22:33;7.30;99.90
52275;DHT22;38228;50.940;4.024;2024-02-23T09:24:59;7.30;99.90
52275;DHT22;38228;50.940;4.024;2024-02-23T09:27:25;7.30;99.90
52275;DHT22;38228;50.940;4.024;2024-02-23T09:29:50;7.30;99.90
52275;DHT22;38228;50.940;4.024;2024-02-23T09:32:17;7.40;99.90
52275;DHT22;38228;50.940;4.024;2024-02-23T09:34:43;7.60;99.90
52275;DHT22;38228;50.940;4.024;2024-02-23T09:37:09;7.70;99.90
52275;DHT22;38228;50.940;4.024;2024-02-23T09:39:35;7.80;99.90
52275;DHT22;38228;50.940;4.024;2024-02-23T09:42:01;7.80;99.90
52275;DHT22;38228;50.940;4.024;2024-02-23T09:44:34;7.80;99.90
52275;DHT22;38228;50.940;4.024;2024-02-23T09:47:01;7.80;99.90
52275;DHT22;38228;50.940;4.024;2024-02-23T09:49:36;8.00;99.90
52275;DHT22;38228;50.940;4.024;2024-02-23T09:52:04;7.90;99.90
52275;DHT22;38228;50.940;4.024;2024-02-23T09:54:32;7.90;99.90
52275;DHT22;38228;50.940;4.024;2024-02-23T09:56:57;7.80;99.90
52275;DHT22;38228;50.940;4.024;2024-02-23T09:59:23;7.90;99.90
52275;DHT22;38228;50.940;4.024;2024-02-23T10:01:53;8.00;99.90
52275;DHT22;38228;50.940;4.024;2024-02-23T10:04:19;8.10;99.90
52275;DHT22;38228;50.940;4.024;2024-02-23T10:06:45;8.20;99.90
52275;DHT22;38228;50.940;4.024;2024-02-23T10:09:10;8.10;99.90
52275;DHT22;38228;50.940;4.024;2024-02-23T10:11:38;7.80;99.90
52275;DHT22;38228;50.940;4.024;2024-02-23T10:14:04;7.90;99.90
52275;DHT22;38228;50.940;4.024;2024-02-23T10:16:30;7.80;99.90
52275;DHT22;38228;50.940;4.024;2024-02-23T10:18:57;7.70;99.90
52275;DHT22;38228;50.940;4.024;2024-02-23T10:21:23;7.60;99.90
52275;DHT22;38228;50.940;4.024;2024-02-23T10:23:50;7.70;99.90
52275;DHT22;38228;50.940;4.024;2024-02-23T10:26:17;7.70;99.90
52275;DHT22;38228;50.940;4.024;2024-02-23T10:28:45;7.70;99.90
52275;DHT22;38228;50.940;4.024;2024-02-23T10:31:14;7.70;99.90
52275;DHT22;38228;50.940;4.024;2024-02-23T10:33:40;7.60;99.90
52275;DHT22;38228;50.940;4.024;2024-02-23T10:36:07;7.50;99.90
52275;DHT22;38228;50.940;4.024;2024-02-23T10:38:38;7.70;99.90
52275;DHT22;38228;50.940;4.024;2024-02-23T10:41:06;7.80;99.90
52275;DHT22;38228;50.940;4.024;2024-02-23T10:43:44;7.80;99.90
52275;DHT22;38228;50.940;4.024;2024-02-23T10:46:11;7.90;99.90
52275;DHT22;38228;50.940;4.024;2024-02-23T10:48:44;8.00;99.90
52275;DHT22;38228;50.940;4.024;2024-02-23T10:51:14;8.10;99.90
52275;DHT22;38228;50.940;4.024;2024-02-23T10:53:40;8.20;99.90
52275;DHT22;38228;50.940;4.024;2024-02-23T10:56:07;8.20;99.90
52275;DHT22;38228;50.940;4.024;2024-02-23T10:58:33;8.50;99.90
52275;DHT22;38228;50.940;4.024;2024-02-23T11:01:04;8.50;99.90
52275;DHT22;38228;50.940;4.024;2024-02-23T11:03:32;8.60;99.90
52275;DHT22;38228;50.940;4.024;2024-02-23T11:06:02;8.50;99.90
52275;DHT22;38228;50.940;4.024;2024-02-23T11:08:28;8.60;99.90
52275;DHT22;38228;50.940;4.024;2024-02-23T11:10:54;8.70;99.90
52275;DHT22;38228;50.940;4.024;2024-02-23T11:13:36;8.70;99.90
52275;DHT22;38228;50.940;4.024;2024-02-23T11:16:07;8.60;99.90
52275;DHT22;38228;50.940;4.024;2024-02-23T11:18:36;8.70;99.90
52275;DHT22;38228;50.940;4.024;2024-02-23T11:21:05;8.80;99.90
52275;DHT22;38228;50.940;4.024;2024-02-23T11:26:07;8.80;99.90
52275;DHT22;38228;50.940;4.024;2024-02-23T11:28:50;8.90;99.90
52275;DHT22;38228;50.940;4.024;2024-02-23T11:31:29;8.80;99.90
52275;DHT22;38228;50.940;4.024;2024-02-23T11:33:56;8.70;99.90
52275;DHT22;38228;50.940;4.024;2024-02-23T11:36:30;8.70;99.90
52275;DHT22;38228;50.940;4.024;2024-02-23T11:39:00;8.90;99.90
52275;DHT22;38228;50.940;4.024;2024-02-23T11:41:27;8.50;99.90
52275;DHT22;38228;50.940;4.024;2024-02-23T11:43:54;8.50;99.90
52275;DHT22;38228;50.940;4.024;2024-02-23T11:46:26;8.50;99.90
52275;DHT22;38228;50.940;4.024;2024-02-23T11:48:52;8.60;99.90
52275;DHT22;38228;50.940;4.024;2024-02-23T11:51:23;8.70;99.90
52275;DHT22;38228;50.940;4.024;2024-02-23T11:53:52;8.80;99.90
52275;DHT22;38228;50.940;4.024;2024-02-23T11:56:19;8.80;99.90
52275;DHT22;38228;50.940;4.024;2024-02-23T11:58:46;8.80;99.90
52275;DHT22;38228;50.940;4.024;2024-02-23T12:01:14;8.80;99.90
52275;DHT22;38228;50.940;4.024;2024-02-23T12:03:40;8.90;99.90
52275;DHT22;38228;50.940;4.024;2024-02-23T12:06:07;9.10;99.90
52275;DHT22;38228;50.940;4.024;2024-02-23T12:08:33;9.10;99.90
52275;DHT22;38228;50.940;4.024;2024-02-23T12:11:05;8.90;99.90
52275;DHT22;38228;50.940;4.024;2024-02-23T12:13:37;8.80;99.90
52275;DHT22;38228;50.940;4.024;2024-02-23T12:16:03;8.80;99.90
52275;DHT22;38228;50.940;4.024;2024-02-23T12:18:29;8.70;99.90
52275;DHT22;38228;50.940;4.024;2024-02-23T12:23:43;8.50;99.90
52275;DHT22;38228;50.940;4.024;2024-02-23T12:26:12;8.40;99.90
52275;DHT22;38228;50.940;4.024;2024-02-23T12:28:39;8.50;99.90
52275;DHT22;38228;50.940;4.024;2024-02-23T12:31:05;8.60;99.90
52275;DHT22;38228;50.940;4.024;2024-02-23T12:33:33;8.60;99.90
52275;DHT22;38228;50.940;4.024;2024-02-23T12:36:04;8.70;99.90
52275;DHT22;38228;50.940;4.024;2024-02-23T12:38:30;8.80;99.90
52275;DHT22;38228;50.940;4.024;2024-02-23T12:40:56;8.80;99.90
52275;DHT22;38228;50.940;4.024;2024-02-23T12:43:22;9.00;99.90
52275;DHT22;38228;50.940;4.024;2024-02-23T12:45:52;8.80;99.90
52275;DHT22;38228;50.940;4.024;2024-02-23T12:48:18;8.90;99.90
52275;DHT22;38228;50.940;4.024;2024-02-23T12:50:45;9.00;99.90
52275;DHT22;38228;50.940;4.024;2024-02-23T12:55:57;9.30;99.90
52275;DHT22;38228;50.940;4.024;2024-02-23T12:58:23;9.40;99.90
52275;DHT22;38228;50.940;4.024;2024-02-23T13:00:49;9.50;99.90
52275;DHT22;38228;50.940;4.024;2024-02-23T13:03:14;9.60;99.90
52275;DHT22;38228;50.940;4.024;2024-02-23T13:05:40;9.60;99.90
52275;DHT22;38228;50.940;4.024;2024-02-23T13:08:06;9.70;99.90
52275;DHT22;38228;50.940;4.024;2024-02-23T13:10:32;9.90;99.90
52275;DHT22;38228;50.940;4.024;2024-02-23T13:12:57;9.90;99.90
52275;DHT22;38228;50.940;4.024;2024-02-23T13:15:23;9.90;99.90
52275;DHT22;38228;50.940;4.024;2024-02-23T13:17:49;10.00;99.90
52275;DHT22;38228;50.940;4.024;2024-02-23T13:20:14;9.80;99.90
52275;DHT22;38228;50.940;4.024;2024-02-23T13:22:40;9.60;99.90
52275;DHT22;38228;50.940;4.024;2024-02-23T13:25:06;9.50;99.90
52275;DHT22;38228;50.940;4.024;2024-02-23T13:27:32;9.70;99.90
52275;DHT22;38228;50.940;4.024;2024-02-23T13:29:57;9.80;99.90
52275;DHT22;38228;50.940;4.024;2024-02-23T13:32:23;10.00;99.90
52275;DHT22;38228;50.940;4.024;2024-02-23T13:34:49;10.10;99.90
52275;DHT22;38228;50.940;4.024;2024-02-23T13:37:18;10.20;99.90
52275;DHT22;38228;50.940;4.024;2024-02-23T13:39:43;10.20;99.90
52275;DHT22;38228;50.940;4.024;2024-02-23T13:42:09;10.20;99.90
52275;DHT22;38228;50.940;4.024;2024-02-23T13:44:36;10.40;99.90
52275;DHT22;38228;50.940;4.024;2024-02-23T13:47:01;10.60;99.90
52275;DHT22;38228;50.940;4.024;2024-02-23T13:49:28;10.60;99.90
52275;DHT22;38228;50.940;4.024;2024-02-23T13:51:54;10.60;99.90
52275;DHT22;38228;50.940;4.024;2024-02-23T13:54:20;10.70;99.90
52275;DHT22;38228;50.940;4.024;2024-02-23T13:56:46;10.70;99.90
52275;DHT22;38228;50.940;4.024;2024-02-23T13:59:12;10.60;99.90
52275;DHT22;38228;50.940;4.024;2024-02-23T14:01:38;10.50;99.90
52275;DHT22;38228;50.940;4.024;2024-02-23T14:04:06;10.60;99.90
52275;DHT22;38228;50.940;4.024;2024-02-23T14:06:32;10.70;99.90
52275;DHT22;38228;50.940;4.024;2024-02-23T14:08:58;10.90;99.90
52275;DHT22;38228;50.940;4.024;2024-02-23T14:11:24;11.10;99.90
52275;DHT22;38228;50.940;4.024;2024-02-23T14:13:50;11.30;99.90
52275;DHT22;38228;50.940;4.024;2024-02-23T14:16:16;11.20;99.90
52275;DHT22;38228;50.940;4.024;2024-02-23T14:18:42;11.20;99.90
52275;DHT22;38228;50.940;4.024;2024-02-23T14:21:10;11.20;99.90
52275;DHT22;38228;50.940;4.024;2024-02-23T14:23:36;10.90;99.90
52275;DHT22;38228;50.940;4.024;2024-02-23T14:26:03;10.70;99.90
52275;DHT22;38228;50.940;4.024;2024-02-23T14:28:29;10.90;99.90
52275;DHT22;38228;50.940;4.024;2024-02-23T14:30:55;10.80;99.90
52275;DHT22;38228;50.940;4.024;2024-02-23T14:33:21;10.80;99.90
52275;DHT22;38228;50.940;4.024;2024-02-23T14:35:47;11.00;99.90
52275;DHT22;38228;50.940;4.024;2024-02-23T14:38:15;11.00;99.90
52275;DHT22;38228;50.940;4.024;2024-02-23T14:40:40;11.00;99.90
52275;DHT22;38228;50.940;4.024;2024-02-23T14:43:06;10.90;99.90
52275;DHT22;38228;50.940;4.024;2024-02-23T14:45:32;11.20;99.90
52275;DHT22;38228;50.940;4.024;2024-02-23T14:47:57;11.40;99.90
52275;DHT22;38228;50.940;4.024;2024-02-23T14:50:23;11.40;99.90
52275;DHT22;38228;50.940;4.024;2024-02-23T14:52:50;11.40;99.90
52275;DHT22;38228;50.940;4.024;2024-02-23T14:55:15;11.50;99.90
52275;DHT22;38228;50.940;4.024;2024-02-23T14:57:41;11.30;99.90
52275;DHT22;38228;50.940;4.024;2024-02-23T15:00:07;11.20;99.90
52275;DHT22;38228;50.940;4.024;2024-02-23T15:02:33;10.80;99.90
52275;DHT22;38228;50.940;4.024;2024-02-23T15:04:59;10.70;99.90
52275;DHT22;38228;50.940;4.024;2024-02-23T15:07:24;10.60;99.90
52275;DHT22;38228;50.940;4.024;2024-02-23T15:09:50;10.00;99.90
52275;DHT22;38228;50.940;4.024;2024-02-23T15:12:16;9.90;99.90
52275;DHT22;38228;50.940;4.024;2024-02-23T15:14:41;9.70;99.90
52275;DHT22;38228;50.940;4.024;2024-02-23T15:17:07;9.30;99.90
52275;DHT22;38228;50.940;4.024;2024-02-23T15:19:33;9.20;99.90
52275;DHT22;38228;50.940;4.024;2024-02-23T15:21:59;9.20;99.90
52275;DHT22;38228;50.940;4.024;2024-02-23T15:24:24;9.30;99.90
52275;DHT22;38228;50.940;4.024;2024-02-23T15:26:50;9.30;99.90
52275;DHT22;38228;50.940;4.024;2024-02-23T15:29:17;9.20;99.90
52275;DHT22;38228;50.940;4.024;2024-02-23T15:31:43;9.10;99.90
52275;DHT22;38228;50.940;4.024;2024-02-23T15:34:09;9.20;99.90
52275;DHT22;38228;50.940;4.024;2024-02-23T15:36:35;9.30;99.90
52275;DHT22;38228;50.940;4.024;2024-02-23T15:39:01;9.30;99.90
52275;DHT22;38228;50.940;4.024;2024-02-23T15:41:34;9.30;99.90
52275;DHT22;38228;50.940;4.024;2024-02-23T15:44:01;9.20;99.90
52275;DHT22;38228;50.940;4.024;2024-02-23T15:46:26;9.30;99.90
52275;DHT22;38228;50.940;4.024;2024-02-23T15:48:53;9.30;99.90